sensor_id;sensor_type;location;lat;lon;timestamp;P1;durP1;ratioP1;P2;durP2;ratioP2
51184;SDS011;37248;59.350;18.050;2022-07-23T00:01:54;9.83;;;7.10;;
51184;SDS011;37248;59.350;18.050;2022-07-23T00:04:19;10.03;;;7.17;;
51184;SDS011;37248;59.350;18.050;2022-07-23T00:06:44;9.30;;;7.13;;
51184;SDS011;37248;59.350;18.050;2022-07-23T00:09:10;8.73;;;6.80;;
51184;SDS011;37248;59.350;18.050;2022-07-23T00:11:35;9.52;;;7.35;;
51184;SDS011;37248;59.350;18.050;2022-07-23T00:14:00;9.70;;;7.10;;
51184;SDS011;37248;59.350;18.050;2022-07-23T00:16:25;9.55;;;7.07;;
51184;SDS011;37248;59.350;18.050;2022-07-23T00:18:51;9.23;;;6.70;;
51184;SDS011;37248;59.350;18.050;2022-07-23T00:21:16;9.05;;;6.60;;
51184;SDS011;37248;59.350;18.050;2022-07-23T00:23:41;10.77;;;7.00;;
51184;SDS011;37248;59.350;18.050;2022-07-23T00:26:06;8.80;;;6.07;;
51184;SDS011;37248;59.350;18.050;2022-07-23T00:28:32;9.30;;;6.68;;
51184;SDS011;37248;59.350;18.050;2022-07-23T00:30:58;8.67;;;6.60;;
51184;SDS011;37248;59.350;18.050;2022-07-23T00:33:23;9.90;;;6.63;;
51184;SDS011;37248;59.350;18.050;2022-07-23T00:35:48;8.73;;;6.73;;
51184;SDS011;37248;59.350;18.050;2022-07-23T00:38:13;9.18;;;6.75;;
51184;SDS011;37248;59.350;18.050;2022-07-23T00:40:39;9.03;;;6.53;;
51184;SDS011;37248;59.350;18.050;2022-07-23T00:43:04;7.57;;;6.00;;
51184;SDS011;37248;59.350;18.050;2022-07-23T00:45:30;9.23;;;6.30;;
51184;SDS011;37248;59.350;18.050;2022-07-23T00:47:55;9.57;;;6.13;;
51184;SDS011;37248;59.350;18.050;2022-07-23T00:50:21;8.73;;;6.23;;
51184;SDS011;37248;59.350;18.050;2022-07-23T00:52:46;9.30;;;6.40;;
51184;SDS011;37248;59.350;18.050;2022-07-23T00:55:11;9.07;;;6.53;;
51184;SDS011;37248;59.350;18.050;2022-07-23T00:57:37;9.20;;;6.40;;
51184;SDS011;37248;59.350;18.050;2022-07-23T01:00:04;8.70;;;6.25;;
51184;SDS011;37248;59.350;18.050;2022-07-23T01:02:29;7.60;;;6.00;;
51184;SDS011;37248;59.350;18.050;2022-07-23T01:04:54;9.47;;;6.33;;
51184;SDS011;37248;59.350;18.050;2022-07-23T01:07:20;8.53;;;5.73;;
51184;SDS011;37248;59.350;18.050;2022-07-23T01:09:45;9.27;;;6.67;;
51184;SDS011;37248;59.350;18.050;2022-07-23T01:12:11;9.27;;;6.40;;
51184;SDS011;37248;59.350;18.050;2022-07-23T01:14:36;9.40;;;6.33;;
51184;SDS011;37248;59.350;18.050;2022-07-23T01:17:02;8.97;;;6.40;;
51184;SDS011;37248;59.350;18.050;2022-07-23T01:19:27;8.63;;;5.83;;
51184;SDS011;37248;59.350;18.050;2022-07-23T01:21:52;8.73;;;6.10;;
51184;SDS011;37248;59.350;18.050;2022-07-23T01:24:18;9.88;;;6.47;;
51184;SDS011;37248;59.350;18.050;2022-07-23T01:26:46;8.90;;;6.05;;
51184;SDS011;37248;59.350;18.050;2022-07-23T01:29:12;7.95;;;5.78;;
51184;SDS011;37248;59.350;18.050;2022-07-23T01:31:37;6.95;;;5.45;;
51184;SDS011;37248;59.350;18.050;2022-07-23T01:34:03;9.27;;;5.60;;
51184;SDS011;37248;59.350;18.050;2022-07-23T01:36:29;9.93;;;6.32;;
51184;SDS011;37248;59.350;18.050;2022-07-23T01:38:54;9.83;;;6.20;;
51184;SDS011;37248;59.350;18.050;2022-07-23T01:41:20;7.90;;;5.13;;
51184;SDS011;37248;59.350;18.050;2022-07-23T01:43:45;8.60;;;6.00;;
51184;SDS011;37248;59.350;18.050;2022-07-23T01:46:10;8.20;;;5.73;;
51184;SDS011;37248;59.350;18.050;2022-07-23T01:48:35;9.73;;;5.67;;
51184;SDS011;37248;59.350;18.050;2022-07-23T01:51:01;8.60;;;5.50;;
51184;SDS011;37248;59.350;18.050;2022-07-23T01:53:26;8.17;;;5.63;;
51184;SDS011;37248;59.350;18.050;2022-07-23T01:55:51;8.20;;;5.87;;
51184;SDS011;37248;59.350;18.050;2022-07-23T01:58:17;8.27;;;5.60;;
51184;SDS011;37248;59.350;18.050;2022-07-23T02:00:42;8.13;;;5.50;;
51184;SDS011;37248;59.350;18.050;2022-07-23T02:03:07;8.23;;;5.30;;
51184;SDS011;37248;59.350;18.050;2022-07-23T02:05:33;8.00;;;5.30;;
51184;SDS011;37248;59.350;18.050;2022-07-23T02:07:58;9.20;;;5.53;;
51184;SDS011;37248;59.350;18.050;2022-07-23T02:10:24;7.93;;;4.87;;
51184;SDS011;37248;59.350;18.050;2022-07-23T02:12:49;7.83;;;5.17;;
51184;SDS011;37248;59.350;18.050;2022-07-23T02:15:15;7.20;;;5.37;;
51184;SDS011;37248;59.350;18.050;2022-07-23T02:17:40;7.03;;;5.20;;
51184;SDS011;37248;59.350;18.050;2022-07-23T02:20:06;7.40;;;4.93;;
51184;SDS011;37248;59.350;18.050;2022-07-23T02:22:32;8.20;;;4.93;;
51184;SDS011;37248;59.350;18.050;2022-07-23T02:24:57;7.90;;;4.87;;
51184;SDS011;37248;59.350;18.050;2022-07-23T02:27:22;7.37;;;5.17;;
51184;SDS011;37248;59.350;18.050;2022-07-23T02:29:48;8.00;;;4.97;;
51184;SDS011;37248;59.350;18.050;2022-07-23T02:32:13;7.23;;;4.40;;
51184;SDS011;37248;59.350;18.050;2022-07-23T02:34:39;6.73;;;4.53;;
51184;SDS011;37248;59.350;18.050;2022-07-23T02:37:04;7.33;;;5.00;;
51184;SDS011;37248;59.350;18.050;2022-07-23T02:39:29;5.97;;;4.27;;
51184;SDS011;37248;59.350;18.050;2022-07-23T02:41:54;6.03;;;4.20;;
51184;SDS011;37248;59.350;18.050;2022-07-23T02:44:20;8.93;;;4.63;;
51184;SDS011;37248;59.350;18.050;2022-07-23T02:46:45;6.97;;;4.47;;
51184;SDS011;37248;59.350;18.050;2022-07-23T02:49:10;6.47;;;4.63;;
51184;SDS011;37248;59.350;18.050;2022-07-23T02:51:35;7.10;;;4.57;;
51184;SDS011;37248;59.350;18.050;2022-07-23T02:54:00;6.53;;;4.23;;
51184;SDS011;37248;59.350;18.050;2022-07-23T02:56:26;5.75;;;4.07;;
51184;SDS011;37248;59.350;18.050;2022-07-23T02:58:51;5.90;;;4.20;;
51184;SDS011;37248;59.350;18.050;2022-07-23T03:01:16;7.23;;;4.30;;
51184;SDS011;37248;59.350;18.050;2022-07-23T03:03:42;5.50;;;4.20;;
51184;SDS011;37248;59.350;18.050;2022-07-23T03:06:07;6.23;;;4.27;;
51184;SDS011;37248;59.350;18.050;2022-07-23T03:08:32;6.63;;;3.60;;
51184;SDS011;37248;59.350;18.050;2022-07-23T03:10:57;5.30;;;3.80;;
51184;SDS011;37248;59.350;18.050;2022-07-23T03:13:23;5.33;;;3.77;;
51184;SDS011;37248;59.350;18.050;2022-07-23T03:15:48;6.00;;;3.90;;
51184;SDS011;37248;59.350;18.050;2022-07-23T03:18:13;4.93;;;3.63;;
51184;SDS011;37248;59.350;18.050;2022-07-23T03:20:38;5.50;;;3.70;;
51184;SDS011;37248;59.350;18.050;2022-07-23T03:23:04;5.60;;;3.70;;
51184;SDS011;37248;59.350;18.050;2022-07-23T03:25:29;4.77;;;3.40;;
51184;SDS011;37248;59.350;18.050;2022-07-23T03:27:54;6.23;;;3.70;;
51184;SDS011;37248;59.350;18.050;2022-07-23T03:30:19;5.30;;;3.40;;
51184;SDS011;37248;59.350;18.050;2022-07-23T03:32:44;4.97;;;3.22;;
51184;SDS011;37248;59.350;18.050;2022-07-23T03:35:10;4.87;;;3.13;;
51184;SDS011;37248;59.350;18.050;2022-07-23T03:37:35;4.50;;;3.00;;
51184;SDS011;37248;59.350;18.050;2022-07-23T03:40:00;4.90;;;3.20;;
51184;SDS011;37248;59.350;18.050;2022-07-23T03:42:26;3.93;;;3.10;;
51184;SDS011;37248;59.350;18.050;2022-07-23T03:44:52;4.53;;;3.20;;
51184;SDS011;37248;59.350;18.050;2022-07-23T03:47:17;4.47;;;3.13;;
51184;SDS011;37248;59.350;18.050;2022-07-23T03:49:46;5.05;;;3.20;;
51184;SDS011;37248;59.350;18.050;2022-07-23T03:52:11;4.47;;;3.03;;
51184;SDS011;37248;59.350;18.050;2022-07-23T03:54:36;4.23;;;3.07;;
51184;SDS011;37248;59.350;18.050;2022-07-23T03:57:02;4.20;;;2.90;;
51184;SDS011;37248;59.350;18.050;2022-07-23T03:59:27;4.63;;;2.73;;
51184;SDS011;37248;59.350;18.050;2022-07-23T04:01:52;4.13;;;2.87;;
51184;SDS011;37248;59.350;18.050;2022-07-23T04:04:18;4.33;;;2.80;;
51184;SDS011;37248;59.350;18.050;2022-07-23T04:06:43;3.57;;;2.80;;
51184;SDS011;37248;59.350;18.050;2022-07-23T04:09:08;4.57;;;2.70;;
51184;SDS011;37248;59.350;18.050;2022-07-23T04:11:33;4.07;;;2.63;;
51184;SDS011;37248;59.350;18.050;2022-07-23T04:13:59;3.97;;;2.80;;
51184;SDS011;37248;59.350;18.050;2022-07-23T04:16:24;4.20;;;2.90;;
51184;SDS011;37248;59.350;18.050;2022-07-23T04:18:49;4.00;;;2.50;;
51184;SDS011;37248;59.350;18.050;2022-07-23T04:21:14;3.27;;;2.50;;
51184;SDS011;37248;59.350;18.050;2022-07-23T04:23:40;4.20;;;2.63;;
51184;SDS011;37248;59.350;18.050;2022-07-23T04:26:05;2.90;;;1.98;;
51184;SDS011;37248;59.350;18.050;2022-07-23T04:28:30;4.00;;;2.53;;
51184;SDS011;37248;59.350;18.050;2022-07-23T04:30:56;3.77;;;2.30;;
51184;SDS011;37248;59.350;18.050;2022-07-23T04:33:22;3.28;;;2.50;;
51184;SDS011;37248;59.350;18.050;2022-07-23T04:35:47;2.80;;;2.30;;
51184;SDS011;37248;59.350;18.050;2022-07-23T04:38:12;3.07;;;2.17;;
51184;SDS011;37248;59.350;18.050;2022-07-23T04:40:38;2.90;;;2.00;;
51184;SDS011;37248;59.350;18.050;2022-07-23T04:43:03;3.60;;;2.43;;
51184;SDS011;37248;59.350;18.050;2022-07-23T04:45:28;3.45;;;1.98;;
51184;SDS011;37248;59.350;18.050;2022-07-23T04:47:53;4.17;;;2.30;;
51184;SDS011;37248;59.350;18.050;2022-07-23T04:50:19;2.80;;;2.10;;
51184;SDS011;37248;59.350;18.050;2022-07-23T04:52:46;3.13;;;2.08;;
51184;SDS011;37248;59.350;18.050;2022-07-23T04:55:12;2.70;;;1.95;;
51184;SDS011;37248;59.350;18.050;2022-07-23T04:57:37;3.10;;;1.83;;
51184;SDS011;37248;59.350;18.050;2022-07-23T05:00:02;3.07;;;2.00;;
51184;SDS011;37248;59.350;18.050;2022-07-23T05:02:28;2.55;;;1.77;;
51184;SDS011;37248;59.350;18.050;2022-07-23T05:04:53;3.10;;;2.27;;
51184;SDS011;37248;59.350;18.050;2022-07-23T05:07:18;2.27;;;1.80;;
51184;SDS011;37248;59.350;18.050;2022-07-23T05:09:44;3.60;;;2.00;;
51184;SDS011;37248;59.350;18.050;2022-07-23T05:12:09;3.10;;;2.00;;
51184;SDS011;37248;59.350;18.050;2022-07-23T05:14:34;2.40;;;1.70;;
51184;SDS011;37248;59.350;18.050;2022-07-23T05:17:00;2.50;;;1.60;;
51184;SDS011;37248;59.350;18.050;2022-07-23T05:19:25;2.10;;;1.50;;
51184;SDS011;37248;59.350;18.050;2022-07-23T05:21:50;2.30;;;1.70;;
51184;SDS011;37248;59.350;18.050;2022-07-23T05:24:15;2.20;;;1.50;;
51184;SDS011;37248;59.350;18.050;2022-07-23T05:26:41;2.50;;;1.60;;
51184;SDS011;37248;59.350;18.050;2022-07-23T05:29:06;2.20;;;1.70;;
51184;SDS011;37248;59.350;18.050;2022-07-23T05:31:31;2.30;;;1.70;;
51184;SDS011;37248;59.350;18.050;2022-07-23T05:33:56;2.60;;;1.87;;
51184;SDS011;37248;59.350;18.050;2022-07-23T05:36:22;2.53;;;1.60;;
51184;SDS011;37248;59.350;18.050;2022-07-23T05:38:47;2.90;;;1.80;;
51184;SDS011;37248;59.350;18.050;2022-07-23T05:41:12;2.20;;;1.60;;
51184;SDS011;37248;59.350;18.050;2022-07-23T05:43:37;2.40;;;1.60;;
51184;SDS011;37248;59.350;18.050;2022-07-23T05:46:03;1.87;;;1.20;;
51184;SDS011;37248;59.350;18.050;2022-07-23T05:48:28;1.93;;;1.20;;
51184;SDS011;37248;59.350;18.050;2022-07-23T05:50:53;2.43;;;1.40;;
51184;SDS011;37248;59.350;18.050;2022-07-23T05:53:19;4.47;;;1.73;;
51184;SDS011;37248;59.350;18.050;2022-07-23T05:55:44;1.70;;;1.30;;
51184;SDS011;37248;59.350;18.050;2022-07-23T05:58:09;1.90;;;1.30;;
51184;SDS011;37248;59.350;18.050;2022-07-23T06:00:34;2.10;;;1.30;;
51184;SDS011;37248;59.350;18.050;2022-07-23T06:02:59;1.77;;;1.27;;
51184;SDS011;37248;59.350;18.050;2022-07-23T06:05:25;1.60;;;1.23;;
51184;SDS011;37248;59.350;18.050;2022-07-23T06:07:50;2.03;;;1.40;;
51184;SDS011;37248;59.350;18.050;2022-07-23T06:10:16;2.53;;;1.40;;
51184;SDS011;37248;59.350;18.050;2022-07-23T06:12:41;1.50;;;1.10;;
51184;SDS011;37248;59.350;18.050;2022-07-23T06:15:07;1.77;;;1.07;;
51184;SDS011;37248;59.350;18.050;2022-07-23T06:17:32;2.05;;;1.30;;
51184;SDS011;37248;59.350;18.050;2022-07-23T06:19:57;2.17;;;1.20;;
51184;SDS011;37248;59.350;18.050;2022-07-23T06:22:22;1.77;;;1.10;;
51184;SDS011;37248;59.350;18.050;2022-07-23T06:24:48;1.73;;;1.10;;
51184;SDS011;37248;59.350;18.050;2022-07-23T06:27:14;1.40;;;1.10;;
51184;SDS011;37248;59.350;18.050;2022-07-23T06:29:39;2.03;;;1.37;;
51184;SDS011;37248;59.350;18.050;2022-07-23T06:32:05;1.90;;;1.43;;
51184;SDS011;37248;59.350;18.050;2022-07-23T06:34:31;1.60;;;1.00;;
51184;SDS011;37248;59.350;18.050;2022-07-23T06:36:56;1.37;;;1.00;;
51184;SDS011;37248;59.350;18.050;2022-07-23T06:39:21;1.60;;;1.00;;
51184;SDS011;37248;59.350;18.050;2022-07-23T06:41:46;1.53;;;1.10;;
51184;SDS011;37248;59.350;18.050;2022-07-23T06:44:11;1.83;;;1.10;;
51184;SDS011;37248;59.350;18.050;2022-07-23T06:46:37;1.33;;;0.93;;
51184;SDS011;37248;59.350;18.050;2022-07-23T06:49:02;3.10;;;1.40;;
51184;SDS011;37248;59.350;18.050;2022-07-23T06:51:29;1.42;;;0.90;;
51184;SDS011;37248;59.350;18.050;2022-07-23T06:53:54;1.70;;;1.10;;
51184;SDS011;37248;59.350;18.050;2022-07-23T06:56:19;1.20;;;0.80;;
51184;SDS011;37248;59.350;18.050;2022-07-23T06:58:44;1.47;;;0.93;;
51184;SDS011;37248;59.350;18.050;2022-07-23T07:01:10;2.30;;;0.90;;
51184;SDS011;37248;59.350;18.050;2022-07-23T07:03:35;1.13;;;0.83;;
51184;SDS011;37248;59.350;18.050;2022-07-23T07:06:00;1.60;;;1.03;;
51184;SDS011;37248;59.350;18.050;2022-07-23T07:08:26;1.40;;;0.90;;
51184;SDS011;37248;59.350;18.050;2022-07-23T07:10:51;1.10;;;0.90;;
51184;SDS011;37248;59.350;18.050;2022-07-23T07:13:16;1.47;;;1.10;;
51184;SDS011;37248;59.350;18.050;2022-07-23T07:15:41;1.80;;;0.90;;
51184;SDS011;37248;59.350;18.050;2022-07-23T07:18:07;1.00;;;0.70;;
51184;SDS011;37248;59.350;18.050;2022-07-23T07:20:32;1.50;;;1.00;;
51184;SDS011;37248;59.350;18.050;2022-07-23T07:22:57;1.13;;;0.77;;
51184;SDS011;37248;59.350;18.050;2022-07-23T07:25:23;2.00;;;0.80;;
51184;SDS011;37248;59.350;18.050;2022-07-23T07:27:48;1.70;;;0.87;;
51184;SDS011;37248;59.350;18.050;2022-07-23T07:30:13;1.70;;;0.80;;
51184;SDS011;37248;59.350;18.050;2022-07-23T07:32:39;1.63;;;0.90;;
51184;SDS011;37248;59.350;18.050;2022-07-23T07:35:05;1.77;;;1.10;;
51184;SDS011;37248;59.350;18.050;2022-07-23T07:37:30;1.58;;;1.25;;
51184;SDS011;37248;59.350;18.050;2022-07-23T07:39:56;1.37;;;1.00;;
51184;SDS011;37248;59.350;18.050;2022-07-23T07:42:21;1.93;;;1.73;;
51184;SDS011;37248;59.350;18.050;2022-07-23T07:44:46;2.07;;;1.50;;
51184;SDS011;37248;59.350;18.050;2022-07-23T07:47:11;2.17;;;1.70;;
51184;SDS011;37248;59.350;18.050;2022-07-23T07:49:38;1.67;;;1.52;;
51184;SDS011;37248;59.350;18.050;2022-07-23T07:52:04;3.13;;;1.80;;
51184;SDS011;37248;59.350;18.050;2022-07-23T07:54:31;2.65;;;1.80;;
51184;SDS011;37248;59.350;18.050;2022-07-23T07:56:57;1.95;;;1.52;;
51184;SDS011;37248;59.350;18.050;2022-07-23T07:59:22;2.47;;;2.03;;
51184;SDS011;37248;59.350;18.050;2022-07-23T08:01:47;2.50;;;2.30;;
51184;SDS011;37248;59.350;18.050;2022-07-23T08:04:13;2.83;;;2.53;;
51184;SDS011;37248;59.350;18.050;2022-07-23T08:06:38;2.80;;;2.50;;
51184;SDS011;37248;59.350;18.050;2022-07-23T08:09:03;3.40;;;2.47;;
51184;SDS011;37248;59.350;18.050;2022-07-23T08:11:28;2.73;;;2.50;;
51184;SDS011;37248;59.350;18.050;2022-07-23T08:13:54;3.40;;;2.50;;
51184;SDS011;37248;59.350;18.050;2022-07-23T08:16:19;2.40;;;2.13;;
51184;SDS011;37248;59.350;18.050;2022-07-23T08:18:44;2.73;;;2.50;;
51184;SDS011;37248;59.350;18.050;2022-07-23T08:21:09;2.60;;;2.40;;
51184;SDS011;37248;59.350;18.050;2022-07-23T08:23:36;2.50;;;2.30;;
51184;SDS011;37248;59.350;18.050;2022-07-23T08:26:01;2.90;;;2.60;;
51184;SDS011;37248;59.350;18.050;2022-07-23T08:28:26;2.63;;;2.43;;
51184;SDS011;37248;59.350;18.050;2022-07-23T08:30:52;3.17;;;2.63;;
51184;SDS011;37248;59.350;18.050;2022-07-23T08:33:17;2.70;;;2.50;;
51184;SDS011;37248;59.350;18.050;2022-07-23T08:35:47;3.28;;;2.50;;
51184;SDS011;37248;59.350;18.050;2022-07-23T08:38:13;3.30;;;2.47;;
51184;SDS011;37248;59.350;18.050;2022-07-23T08:40:40;3.43;;;2.63;;
51184;SDS011;37248;59.350;18.050;2022-07-23T08:43:06;2.50;;;2.30;;
51184;SDS011;37248;59.350;18.050;2022-07-23T08:45:35;2.55;;;2.30;;
51184;SDS011;37248;59.350;18.050;2022-07-23T08:48:00;2.45;;;2.20;;
51184;SDS011;37248;59.350;18.050;2022-07-23T08:50:26;2.60;;;2.40;;
51184;SDS011;37248;59.350;18.050;2022-07-23T08:52:52;2.90;;;2.20;;
51184;SDS011;37248;59.350;18.050;2022-07-23T08:55:18;2.60;;;2.20;;
51184;SDS011;37248;59.350;18.050;2022-07-23T08:57:45;2.60;;;2.40;;
51184;SDS011;37248;59.350;18.050;2022-07-23T09:00:12;3.47;;;2.10;;
51184;SDS011;37248;59.350;18.050;2022-07-23T09:02:38;2.30;;;2.10;;
51184;SDS011;37248;59.350;18.050;2022-07-23T09:05:04;2.40;;;2.20;;
51184;SDS011;37248;59.350;18.050;2022-07-23T09:07:29;2.60;;;2.10;;
51184;SDS011;37248;59.350;18.050;2022-07-23T09:10:04;2.30;;;1.90;;
51184;SDS011;37248;59.350;18.050;2022-07-23T09:12:30;2.03;;;1.83;;
51184;SDS011;37248;59.350;18.050;2022-07-23T09:14:55;2.53;;;1.97;;
51184;SDS011;37248;59.350;18.050;2022-07-23T09:17:28;2.08;;;1.77;;
51184;SDS011;37248;59.350;18.050;2022-07-23T09:20:14;2.25;;;2.05;;
51184;SDS011;37248;59.350;18.050;2022-07-23T09:22:46;1.90;;;1.80;;
51184;SDS011;37248;59.350;18.050;2022-07-23T09:25:16;2.08;;;1.88;;
51184;SDS011;37248;59.350;18.050;2022-07-23T09:27:58;2.13;;;1.90;;
51184;SDS011;37248;59.350;18.050;2022-07-23T09:30:28;2.17;;;1.63;;
51184;SDS011;37248;59.350;18.050;2022-07-23T09:33:06;1.80;;;1.60;;
51184;SDS011;37248;59.350;18.050;2022-07-23T09:35:48;2.80;;;1.73;;
51184;SDS011;37248;59.350;18.050;2022-07-23T09:38:14;2.22;;;1.60;;
51184;SDS011;37248;59.350;18.050;2022-07-23T09:40:40;1.90;;;1.67;;
51184;SDS011;37248;59.350;18.050;2022-07-23T09:43:05;2.00;;;1.80;;
51184;SDS011;37248;59.350;18.050;2022-07-23T09:45:30;2.00;;;1.80;;
51184;SDS011;37248;59.350;18.050;2022-07-23T09:48:15;1.70;;;1.43;;
51184;SDS011;37248;59.350;18.050;2022-07-23T09:50:41;1.67;;;1.48;;
51184;SDS011;37248;59.350;18.050;2022-07-23T09:53:06;1.77;;;1.55;;
51184;SDS011;37248;59.350;18.050;2022-07-23T09:55:32;1.63;;;1.40;;
51184;SDS011;37248;59.350;18.050;2022-07-23T09:58:05;1.60;;;1.50;;
51184;SDS011;37248;59.350;18.050;2022-07-23T10:00:31;2.25;;;1.70;;
51184;SDS011;37248;59.350;18.050;2022-07-23T10:02:57;1.75;;;1.20;;
51184;SDS011;37248;59.350;18.050;2022-07-23T10:05:24;1.98;;;1.50;;
51184;SDS011;37248;59.350;18.050;2022-07-23T10:07:49;1.60;;;1.40;;
51184;SDS011;37248;59.350;18.050;2022-07-23T10:10:15;1.75;;;1.50;;
51184;SDS011;37248;59.350;18.050;2022-07-23T10:12:42;1.40;;;1.30;;
51184;SDS011;37248;59.350;18.050;2022-07-23T10:15:16;1.90;;;1.50;;
51184;SDS011;37248;59.350;18.050;2022-07-23T10:17:42;1.60;;;1.40;;
51184;SDS011;37248;59.350;18.050;2022-07-23T10:20:07;1.55;;;1.33;;
51184;SDS011;37248;59.350;18.050;2022-07-23T10:22:33;1.60;;;1.30;;
51184;SDS011;37248;59.350;18.050;2022-07-23T10:35:36;1.40;;;1.10;;
51184;SDS011;37248;59.350;18.050;2022-07-23T10:40:34;0.98;;;0.88;;
51184;SDS011;37248;59.350;18.050;2022-07-23T10:42:59;1.40;;;1.20;;
51184;SDS011;37248;59.350;18.050;2022-07-23T10:45:35;1.10;;;1.00;;
51184;SDS011;37248;59.350;18.050;2022-07-23T10:50:39;1.40;;;1.02;;
51184;SDS011;37248;59.350;18.050;2022-07-23T10:58:05;1.60;;;1.10;;
51184;SDS011;37248;59.350;18.050;2022-07-23T11:00:34;1.20;;;1.00;;
51184;SDS011;37248;59.350;18.050;2022-07-23T11:03:01;1.00;;;0.90;;
51184;SDS011;37248;59.350;18.050;2022-07-23T11:05:38;1.20;;;0.90;;
51184;SDS011;37248;59.350;18.050;2022-07-23T11:31:52;1.10;;;0.80;;
51184;SDS011;37248;59.350;18.050;2022-07-23T11:34:27;1.00;;;0.70;;
51184;SDS011;37248;59.350;18.050;2022-07-23T11:36:53;1.23;;;0.80;;
51184;SDS011;37248;59.350;18.050;2022-07-23T11:39:18;1.10;;;0.87;;
51184;SDS011;37248;59.350;18.050;2022-07-23T11:41:44;0.93;;;0.68;;
51184;SDS011;37248;59.350;18.050;2022-07-23T11:46:54;1.40;;;0.80;;
51184;SDS011;37248;59.350;18.050;2022-07-23T11:49:20;0.80;;;0.70;;
51184;SDS011;37248;59.350;18.050;2022-07-23T11:51:45;0.80;;;0.70;;
51184;SDS011;37248;59.350;18.050;2022-07-23T11:54:11;0.70;;;0.70;;
51184;SDS011;37248;59.350;18.050;2022-07-23T11:56:36;1.90;;;0.90;;
51184;SDS011;37248;59.350;18.050;2022-07-23T11:59:01;0.80;;;0.50;;
51184;SDS011;37248;59.350;18.050;2022-07-23T12:01:26;1.10;;;0.70;;
51184;SDS011;37248;59.350;18.050;2022-07-23T12:03:52;1.00;;;0.60;;
51184;SDS011;37248;59.350;18.050;2022-07-23T12:06:17;0.90;;;0.70;;
51184;SDS011;37248;59.350;18.050;2022-07-23T12:08:43;0.77;;;0.60;;
51184;SDS011;37248;59.350;18.050;2022-07-23T12:11:08;0.77;;;0.60;;
51184;SDS011;37248;59.350;18.050;2022-07-23T12:13:36;1.00;;;0.60;;
51184;SDS011;37248;59.350;18.050;2022-07-23T12:16:02;0.90;;;0.60;;
51184;SDS011;37248;59.350;18.050;2022-07-23T12:18:27;0.70;;;0.60;;
51184;SDS011;37248;59.350;18.050;2022-07-23T12:20:54;0.65;;;0.50;;
51184;SDS011;37248;59.350;18.050;2022-07-23T12:23:21;0.68;;;0.52;;
51184;SDS011;37248;59.350;18.050;2022-07-23T12:25:47;0.90;;;0.60;;
51184;SDS011;37248;59.350;18.050;2022-07-23T12:28:16;0.70;;;0.50;;
51184;SDS011;37248;59.350;18.050;2022-07-23T12:30:46;0.80;;;0.65;;
51184;SDS011;37248;59.350;18.050;2022-07-23T12:33:13;0.88;;;0.50;;
51184;SDS011;37248;59.350;18.050;2022-07-23T12:35:40;0.90;;;0.60;;
51184;SDS011;37248;59.350;18.050;2022-07-23T12:38:11;0.70;;;0.40;;
51184;SDS011;37248;59.350;18.050;2022-07-23T12:40:42;1.15;;;0.75;;
51184;SDS011;37248;59.350;18.050;2022-07-23T12:43:09;1.00;;;0.60;;
51184;SDS011;37248;59.350;18.050;2022-07-23T12:45:42;1.30;;;0.50;;
51184;SDS011;37248;59.350;18.050;2022-07-23T12:48:07;0.52;;;0.43;;
51184;SDS011;37248;59.350;18.050;2022-07-23T12:50:54;0.67;;;0.50;;
51184;SDS011;37248;59.350;18.050;2022-07-23T12:53:19;0.88;;;0.50;;
51184;SDS011;37248;59.350;18.050;2022-07-23T12:55:45;0.75;;;0.50;;
51184;SDS011;37248;59.350;18.050;2022-07-23T12:58:12;1.50;;;0.70;;
51184;SDS011;37248;59.350;18.050;2022-07-23T13:03:22;0.80;;;0.45;;
51184;SDS011;37248;59.350;18.050;2022-07-23T13:05:47;0.60;;;0.50;;
51184;SDS011;37248;59.350;18.050;2022-07-23T13:08:12;0.70;;;0.50;;
51184;SDS011;37248;59.350;18.050;2022-07-23T13:10:38;1.23;;;0.50;;
51184;SDS011;37248;59.350;18.050;2022-07-23T13:13:07;0.50;;;0.40;;
51184;SDS011;37248;59.350;18.050;2022-07-23T13:15:33;0.60;;;0.50;;
51184;SDS011;37248;59.350;18.050;2022-07-23T13:17:58;0.60;;;0.43;;
51184;SDS011;37248;59.350;18.050;2022-07-23T13:20:23;0.47;;;0.40;;
51184;SDS011;37248;59.350;18.050;2022-07-23T13:22:48;1.60;;;0.50;;
51184;SDS011;37248;59.350;18.050;2022-07-23T13:25:14;0.80;;;0.40;;
51184;SDS011;37248;59.350;18.050;2022-07-23T13:27:39;0.80;;;0.50;;
51184;SDS011;37248;59.350;18.050;2022-07-23T13:30:04;0.93;;;0.50;;
51184;SDS011;37248;59.350;18.050;2022-07-23T13:32:31;0.55;;;0.40;;
51184;SDS011;37248;59.350;18.050;2022-07-23T13:34:56;0.90;;;0.50;;
51184;SDS011;37248;59.350;18.050;2022-07-23T13:37:21;0.93;;;0.50;;
51184;SDS011;37248;59.350;18.050;2022-07-23T13:39:46;0.55;;;0.45;;
51184;SDS011;37248;59.350;18.050;2022-07-23T13:42:12;0.60;;;0.47;;
51184;SDS011;37248;59.350;18.050;2022-07-23T13:44:37;0.77;;;0.40;;
51184;SDS011;37248;59.350;18.050;2022-07-23T13:47:02;0.63;;;0.43;;
51184;SDS011;37248;59.350;18.050;2022-07-23T13:49:28;0.70;;;0.47;;
51184;SDS011;37248;59.350;18.050;2022-07-23T13:51:53;1.10;;;0.47;;
51184;SDS011;37248;59.350;18.050;2022-07-23T13:54:18;0.70;;;0.50;;
51184;SDS011;37248;59.350;18.050;2022-07-23T13:56:43;0.90;;;0.40;;
51184;SDS011;37248;59.350;18.050;2022-07-23T13:59:09;0.57;;;0.35;;
51184;SDS011;37248;59.350;18.050;2022-07-23T14:01:36;0.60;;;0.40;;
51184;SDS011;37248;59.350;18.050;2022-07-23T14:04:01;1.10;;;0.40;;
51184;SDS011;37248;59.350;18.050;2022-07-23T14:06:26;0.80;;;0.30;;
51184;SDS011;37248;59.350;18.050;2022-07-23T14:08:51;0.57;;;0.40;;
51184;SDS011;37248;59.350;18.050;2022-07-23T14:11:17;0.90;;;0.40;;
51184;SDS011;37248;59.350;18.050;2022-07-23T14:13:42;0.67;;;0.30;;
51184;SDS011;37248;59.350;18.050;2022-07-23T14:16:07;0.40;;;0.30;;
51184;SDS011;37248;59.350;18.050;2022-07-23T14:18:32;0.50;;;0.30;;
51184;SDS011;37248;59.350;18.050;2022-07-23T14:20:58;0.65;;;0.40;;
51184;SDS011;37248;59.350;18.050;2022-07-23T14:23:23;0.70;;;0.40;;
51184;SDS011;37248;59.350;18.050;2022-07-23T14:25:48;0.60;;;0.40;;
51184;SDS011;37248;59.350;18.050;2022-07-23T14:28:13;0.50;;;0.40;;
51184;SDS011;37248;59.350;18.050;2022-07-23T14:30:39;0.53;;;0.40;;
51184;SDS011;37248;59.350;18.050;2022-07-23T14:33:04;0.83;;;0.40;;
51184;SDS011;37248;59.350;18.050;2022-07-23T14:35:29;0.50;;;0.40;;
51184;SDS011;37248;59.350;18.050;2022-07-23T14:37:54;0.30;;;0.27;;
51184;SDS011;37248;59.350;18.050;2022-07-23T14:40:21;0.40;;;0.33;;
51184;SDS011;37248;59.350;18.050;2022-07-23T14:42:47;0.40;;;0.37;;
51184;SDS011;37248;59.350;18.050;2022-07-23T14:45:12;0.80;;;0.40;;
51184;SDS011;37248;59.350;18.050;2022-07-23T14:47:37;0.83;;;0.30;;
51184;SDS011;37248;59.350;18.050;2022-07-23T14:50:03;0.60;;;0.30;;
51184;SDS011;37248;59.350;18.050;2022-07-23T14:52:28;0.60;;;0.40;;
51184;SDS011;37248;59.350;18.050;2022-07-23T14:54:54;0.50;;;0.37;;
51184;SDS011;37248;59.350;18.050;2022-07-23T14:57:19;0.60;;;0.40;;
51184;SDS011;37248;59.350;18.050;2022-07-23T14:59:44;0.60;;;0.40;;
51184;SDS011;37248;59.350;18.050;2022-07-23T15:02:10;0.50;;;0.30;;
51184;SDS011;37248;59.350;18.050;2022-07-23T15:04:35;0.80;;;0.40;;
51184;SDS011;37248;59.350;18.050;2022-07-23T15:07:00;0.47;;;0.40;;
51184;SDS011;37248;59.350;18.050;2022-07-23T15:09:25;0.47;;;0.30;;
51184;SDS011;37248;59.350;18.050;2022-07-23T15:11:51;0.80;;;0.40;;
51184;SDS011;37248;59.350;18.050;2022-07-23T15:14:16;0.70;;;0.30;;
51184;SDS011;37248;59.350;18.050;2022-07-23T15:16:41;0.40;;;0.30;;